Gothenburg, NE

3:08 PM CST on February 14, 2016 (GMT -0600)
Schmeeckle | | Change Station
CLOSE
Current Station
Personal Weather Station
Location: Gothenburg, NE
Elevation: 2723 ft
Nearby Weather Stations

Elev 2723 ft 40.97 °N, 100.19 °W | Updated 2 seconds ago

Overcast
Overcast
49.8 °F
Feels Like 47 °F
N
6.7
Wind Variable Wind from WNW
Gusts 9.8 mph

Today
High -- | Low -- °F
--% Chance of Precip.
Yesterday
High -- | Low -- °F
Precip. -- in
Pressure 29.85 in
Visibility 10.0 miles
Clouds Clear
Windchill 47 °F
Dew Point 25 °F
Humidity 37%
Rainfall 0.00 in
Snow Depth Not available.
7:37 AM 6:13 PM
Waxing Crescent, 45% visible
METAR KLBF 142053Z AUTO 27010KT 10SM CLR 09/M03 A2982 RMK AO2 SLP107 T00941033 56016
Pressure 29.85 in
Visibility 10.0 miles
Clouds Clear
Windchill 47 °F
Dew Point 25 °F
Humidity 37%
Rainfall 0.00 in
Snow Depth Not available.
7:37 AM 6:13 PM
Waxing Crescent, 45% visible
METAR KLBF 142053Z AUTO 27010KT 10SM CLR 09/M03 A2982 RMK AO2 SLP107 T00941033 56016

10-Day Weather Forecast

Almanac

Astronomy

Feb. 14, 2016 Rise Set
Actual Time
Civil Twilight
Nautical Twilight
Astronomical Twilight
Moon
Length of Visible Light
Length of Day
Tomorrow will be .
, % of the Moon is Illuminated

Today's Extremes

State Highs State Lows

Community

WunderPhotos

Upload Photos

1,892,885 photos uploaded!

WunderBlog® & News

Nearby

Air Quality

  Air Quality AQ Index Pollutant
Not available.

Snow Depth

Station Depth Elevation

Earthquake Activity

City Distance Mag. Time & Date
Minimum magnitude displayed is 2.5.

Coastal Water Temperatures

Place Temperature

Stations

Nearby Weather Stations

Station Location Temp. Windchill Dew Point Humidity Wind Precip. Elev Updated Type
                   

Watches & Warnings

There are currently no watches in effect.